sensor_id;sensor_type;location;lat;lon;timestamp;P1;durP1;ratioP1;P2;durP2;ratioP2
80746;SDS011;76868;50.218;14.322;2024-03-02T19:19:03;16.58;;;10.65;;
80746;SDS011;76868;50.218;14.322;2024-03-02T19:23:53;13.27;;;9.05;;
80746;SDS011;76868;50.218;14.322;2024-03-02T19:26:19;11.43;;;8.18;;
80746;SDS011;76868;50.218;14.322;2024-03-02T19:31:10;12.98;;;8.18;;
80746;SDS011;76868;50.218;14.322;2024-03-02T19:33:37;12.80;;;7.85;;
80746;SDS011;76868;50.218;14.322;2024-03-02T19:36:02;12.32;;;7.82;;
80746;SDS011;76868;50.218;14.322;2024-03-02T19:38:28;13.48;;;8.23;;
80746;SDS011;76868;50.218;14.322;2024-03-02T19:43:19;12.48;;;7.18;;
80746;SDS011;76868;50.218;14.322;2024-03-02T19:45:45;14.23;;;7.75;;
80746;SDS011;76868;50.218;14.322;2024-03-02T19:48:11;16.77;;;8.43;;
80746;SDS011;76868;50.218;14.322;2024-03-02T19:50:38;14.45;;;9.10;;
80746;SDS011;76868;50.218;14.322;2024-03-02T19:53:06;11.80;;;7.97;;
80746;SDS011;76868;50.218;14.322;2024-03-02T19:55:32;15.13;;;8.50;;
80746;SDS011;76868;50.218;14.322;2024-03-02T19:57:57;12.67;;;8.60;;
80746;SDS011;76868;50.218;14.322;2024-03-02T20:00:23;13.80;;;8.07;;
80746;SDS011;76868;50.218;14.322;2024-03-02T20:02:48;14.38;;;8.07;;
80746;SDS011;76868;50.218;14.322;2024-03-02T20:05:13;12.10;;;8.43;;
80746;SDS011;76868;50.218;14.322;2024-03-02T20:07:40;12.43;;;8.35;;
80746;SDS011;76868;50.218;14.322;2024-03-02T20:12:32;11.75;;;8.10;;
80746;SDS011;76868;50.218;14.322;2024-03-02T20:14:58;12.30;;;9.15;;
80746;SDS011;76868;50.218;14.322;2024-03-02T20:17:24;15.40;;;9.45;;
80746;SDS011;76868;50.218;14.322;2024-03-02T20:19:50;14.43;;;9.30;;
80746;SDS011;76868;50.218;14.322;2024-03-02T20:24:40;13.43;;;9.02;;
80746;SDS011;76868;50.218;14.322;2024-03-02T20:27:06;12.65;;;8.95;;
80746;SDS011;76868;50.218;14.322;2024-03-02T20:31:57;15.65;;;9.57;;
80746;SDS011;76868;50.218;14.322;2024-03-02T20:34:24;14.68;;;9.63;;
80746;SDS011;76868;50.218;14.322;2024-03-02T20:36:49;16.30;;;10.20;;
80746;SDS011;76868;50.218;14.322;2024-03-02T20:39:15;17.92;;;11.77;;
80746;SDS011;76868;50.218;14.322;2024-03-02T20:41:40;16.00;;;10.10;;
80746;SDS011;76868;50.218;14.322;2024-03-02T20:44:05;14.68;;;10.70;;
80746;SDS011;76868;50.218;14.322;2024-03-02T20:48:56;16.10;;;10.15;;
80746;SDS011;76868;50.218;14.322;2024-03-02T20:51:22;16.15;;;9.95;;
80746;SDS011;76868;50.218;14.322;2024-03-02T20:53:53;16.73;;;10.88;;
80746;SDS011;76868;50.218;14.322;2024-03-02T20:56:22;14.05;;;10.88;;
80746;SDS011;76868;50.218;14.322;2024-03-02T20:58:48;18.45;;;12.27;;
80746;SDS011;76868;50.218;14.322;2024-03-02T21:01:14;17.30;;;11.02;;
80746;SDS011;76868;50.218;14.322;2024-03-02T21:03:39;15.10;;;10.38;;
80746;SDS011;76868;50.218;14.322;2024-03-02T21:06:07;13.77;;;10.20;;
80746;SDS011;76868;50.218;14.322;2024-03-02T21:10:57;13.43;;;9.67;;
80746;SDS011;76868;50.218;14.322;2024-03-02T21:13:23;13.50;;;10.38;;
80746;SDS011;76868;50.218;14.322;2024-03-02T21:18:13;15.10;;;11.30;;
80746;SDS011;76868;50.218;14.322;2024-03-02T21:20:39;15.95;;;10.95;;
80746;SDS011;76868;50.218;14.322;2024-03-02T21:25:31;16.52;;;10.57;;
80746;SDS011;76868;50.218;14.322;2024-03-02T21:28:00;14.82;;;10.07;;
80746;SDS011;76868;50.218;14.322;2024-03-02T21:30:25;14.43;;;10.45;;
80746;SDS011;76868;50.218;14.322;2024-03-02T21:32:51;14.45;;;9.98;;
80746;SDS011;76868;50.218;14.322;2024-03-02T21:37:42;13.13;;;9.48;;
80746;SDS011;76868;50.218;14.322;2024-03-02T21:40:08;15.40;;;10.15;;
80746;SDS011;76868;50.218;14.322;2024-03-02T21:42:36;13.98;;;9.88;;
80746;SDS011;76868;50.218;14.322;2024-03-02T21:45:01;13.18;;;10.25;;
80746;SDS011;76868;50.218;14.322;2024-03-02T21:47:27;12.93;;;9.40;;
80746;SDS011;76868;50.218;14.322;2024-03-02T21:49:52;12.73;;;9.50;;
80746;SDS011;76868;50.218;14.322;2024-03-02T21:52:17;14.45;;;9.93;;
80746;SDS011;76868;50.218;14.322;2024-03-02T21:54:43;14.45;;;9.98;;
80746;SDS011;76868;50.218;14.322;2024-03-02T21:57:08;13.55;;;9.77;;
80746;SDS011;76868;50.218;14.322;2024-03-02T21:59:41;13.70;;;9.05;;
80746;SDS011;76868;50.218;14.322;2024-03-02T22:02:06;13.00;;;8.95;;
80746;SDS011;76868;50.218;14.322;2024-03-02T22:04:32;12.60;;;9.10;;
80746;SDS011;76868;50.218;14.322;2024-03-02T22:06:57;10.80;;;8.57;;
80746;SDS011;76868;50.218;14.322;2024-03-02T22:09:22;14.18;;;9.50;;
80746;SDS011;76868;50.218;14.322;2024-03-02T22:11:48;12.68;;;9.65;;
80746;SDS011;76868;50.218;14.322;2024-03-02T22:14:16;12.30;;;9.77;;
80746;SDS011;76868;50.218;14.322;2024-03-02T22:16:43;13.95;;;9.63;;
80746;SDS011;76868;50.218;14.322;2024-03-02T22:19:08;11.50;;;9.23;;
80746;SDS011;76868;50.218;14.322;2024-03-02T22:21:34;12.23;;;9.38;;
80746;SDS011;76868;50.218;14.322;2024-03-02T22:23:59;11.63;;;8.63;;
80746;SDS011;76868;50.218;14.322;2024-03-02T22:28:50;12.03;;;9.20;;
80746;SDS011;76868;50.218;14.322;2024-03-02T22:31:15;12.20;;;9.10;;
80746;SDS011;76868;50.218;14.322;2024-03-02T22:33:40;12.68;;;9.45;;
80746;SDS011;76868;50.218;14.322;2024-03-02T22:36:06;12.23;;;8.55;;
80746;SDS011;76868;50.218;14.322;2024-03-02T22:38:33;11.88;;;9.20;;
80746;SDS011;76868;50.218;14.322;2024-03-02T22:40:58;12.63;;;9.05;;
80746;SDS011;76868;50.218;14.322;2024-03-02T22:43:24;11.20;;;9.10;;
80746;SDS011;76868;50.218;14.322;2024-03-02T22:45:49;13.68;;;9.55;;
80746;SDS011;76868;50.218;14.322;2024-03-02T22:50:40;12.10;;;9.40;;
80746;SDS011;76868;50.218;14.322;2024-03-02T22:53:06;11.77;;;8.50;;
80746;SDS011;76868;50.218;14.322;2024-03-02T22:55:31;12.13;;;9.32;;
80746;SDS011;76868;50.218;14.322;2024-03-02T22:57:57;13.23;;;9.10;;
80746;SDS011;76868;50.218;14.322;2024-03-02T23:00:22;11.45;;;8.23;;
80746;SDS011;76868;50.218;14.322;2024-03-02T23:03:00;11.85;;;8.18;;
80746;SDS011;76868;50.218;14.322;2024-03-02T23:05:27;11.68;;;8.73;;
80746;SDS011;76868;50.218;14.322;2024-03-02T23:07:53;11.77;;;8.55;;
80746;SDS011;76868;50.218;14.322;2024-03-02T23:10:18;10.57;;;8.07;;
80746;SDS011;76868;50.218;14.322;2024-03-02T23:12:44;11.90;;;8.70;;
80746;SDS011;76868;50.218;14.322;2024-03-02T23:15:10;10.70;;;8.77;;
80746;SDS011;76868;50.218;14.322;2024-03-02T23:17:35;11.45;;;8.82;;
80746;SDS011;76868;50.218;14.322;2024-03-02T23:20:01;10.32;;;7.70;;
80746;SDS011;76868;50.218;14.322;2024-03-02T23:22:26;9.63;;;7.90;;
80746;SDS011;76868;50.218;14.322;2024-03-02T23:24:51;9.90;;;7.28;;
80746;SDS011;76868;50.218;14.322;2024-03-02T23:27:17;11.13;;;8.15;;
80746;SDS011;76868;50.218;14.322;2024-03-02T23:29:42;10.18;;;7.80;;
80746;SDS011;76868;50.218;14.322;2024-03-02T23:32:08;10.25;;;8.35;;
80746;SDS011;76868;50.218;14.322;2024-03-02T23:34:33;11.70;;;8.85;;
80746;SDS011;76868;50.218;14.322;2024-03-02T23:36:59;11.02;;;7.80;;
80746;SDS011;76868;50.218;14.322;2024-03-02T23:39:25;11.80;;;8.75;;
80746;SDS011;76868;50.218;14.322;2024-03-02T23:42:09;10.32;;;7.05;;
80746;SDS011;76868;50.218;14.322;2024-03-02T23:44:35;11.20;;;7.40;;
80746;SDS011;76868;50.218;14.322;2024-03-02T23:47:00;10.50;;;8.63;;
80746;SDS011;76868;50.218;14.322;2024-03-02T23:49:25;10.55;;;8.38;;
80746;SDS011;76868;50.218;14.322;2024-03-02T23:51:51;10.63;;;7.28;;
80746;SDS011;76868;50.218;14.322;2024-03-02T23:56:42;9.17;;;7.20;;
80746;SDS011;76868;50.218;14.322;2024-03-02T23:59:08;9.57;;;7.07;;
